Time;durP1;ratioP1;P1;durP2;ratioP2;P2;SDS_P1;SDS_P2;PMS_P1;PMS_P2;Temp;Humidity;BMP_temperature;BMP_pressure;BME280_temperature;BME280_humidity;BME280_pressure;Samples;Min_cycle;Max_cycle;Signal;HPM_P1;HPM_P2
2022/12/08 00:00:34;;;;;;;;;;;3.10;99.90;;;;;;5111087;28;19916;-41
2022/12/08 00:03:00;;;;;;;;;;;3.10;99.90;;;;;;5113558;28;20484;-40
2022/12/08 00:10:53;;;;;;;;;;;3.10;99.90;;;;;;5102702;28;19926;-40
2022/12/08 00:13:19;;;;;;;;;;;3.00;99.90;;;;;;5104376;28;19912;-40
2022/12/08 00:15:44;;;;;;;;;;;3.10;99.90;;;;;;5113189;28;19958;-39
2022/12/08 00:18:10;;;;;;;;;;;3.00;99.90;;;;;;5111445;28;19908;-41
2022/12/08 00:20:36;;;;;;;;;;;3.00;99.90;;;;;;5112409;28;19912;-41
2022/12/08 00:23:03;;;;;;;;;;;3.00;99.90;;;;;;5113159;28;19930;-40
2022/12/08 00:25:28;;;;;;;;;;;3.00;99.90;;;;;;5112797;28;19908;-40
2022/12/08 00:27:54;;;;;;;;;;;3.00;99.90;;;;;;5110599;28;20327;-40
2022/12/08 00:30:19;;;;;;;;;;;3.00;99.90;;;;;;5092650;28;19920;-42
2022/12/08 00:32:45;;;;;;;;;;;3.00;99.90;;;;;;5091818;28;19909;-41
2022/12/08 00:35:10;;;;;;;;;;;3.00;99.90;;;;;;5092805;28;19974;-42
2022/12/08 00:37:36;;;;;;;;;;;3.00;99.90;;;;;;5092759;28;20310;-41
2022/12/08 00:40:01;;;;;;;;;;;2.90;99.90;;;;;;5110050;28;19907;-40
2022/12/08 00:42:27;;;;;;;;;;;3.00;99.90;;;;;;5113078;28;19916;-40
2022/12/08 00:44:53;;;;;;;;;;;3.00;99.90;;;;;;5112855;28;19915;-42
2022/12/08 00:47:18;;;;;;;;;;;2.90;99.90;;;;;;5112161;28;19990;-40
2022/12/08 00:49:44;;;;;;;;;;;3.00;99.90;;;;;;5097035;28;20332;-41
2022/12/08 00:52:09;;;;;;;;;;;3.00;99.90;;;;;;5092071;28;19970;-40
2022/12/08 00:54:35;;;;;;;;;;;3.00;99.90;;;;;;5093069;28;19915;-40
2022/12/08 00:57:00;;;;;;;;;;;3.00;99.90;;;;;;5097027;28;19950;-40
2022/12/08 00:59:26;;;;;;;;;;;3.00;99.90;;;;;;5104884;28;19910;-41
2022/12/08 01:01:51;;;;;;;;;;;3.00;99.90;;;;;;5112038;28;20259;-38
2022/12/08 01:04:18;;;;;;;;;;;2.90;99.90;;;;;;5112912;28;19998;-41
2022/12/08 01:06:44;;;;;;;;;;;3.00;99.90;;;;;;5112562;28;19912;-41
2022/12/08 01:09:10;;;;;;;;;;;3.00;99.90;;;;;;5101592;28;20332;-44
2022/12/08 01:11:36;;;;;;;;;;;3.00;99.90;;;;;;5112214;28;19993;-40
2022/12/08 01:14:01;;;;;;;;;;;3.00;99.90;;;;;;5112462;28;20275;-41
2022/12/08 01:16:29;;;;;;;;;;;3.10;99.90;;;;;;5110333;28;19908;-39
2022/12/08 01:18:55;;;;;;;;;;;3.10;99.90;;;;;;5092295;28;20319;-39
2022/12/08 01:21:21;;;;;;;;;;;3.10;99.90;;;;;;5092007;28;19912;-40
2022/12/08 01:23:46;;;;;;;;;;;3.10;99.90;;;;;;5094679;28;20003;-41
2022/12/08 01:26:13;;;;;;;;;;;3.10;99.90;;;;;;5099187;28;19908;-40
2022/12/08 01:28:39;;;;;;;;;;;3.20;99.90;;;;;;5095654;28;19917;-41
2022/12/08 01:31:09;;;;;;;;;;;3.20;99.90;;;;;;5095032;28;19916;-40
2022/12/08 01:33:34;;;;;;;;;;;3.20;99.90;;;;;;5095964;28;19908;-40
2022/12/08 01:36:04;;;;;;;;;;;3.10;99.90;;;;;;5105707;28;19930;-40
2022/12/08 01:38:29;;;;;;;;;;;3.10;99.90;;;;;;5115992;28;19911;-40
2022/12/08 01:40:55;;;;;;;;;;;3.10;99.90;;;;;;5116110;28;19977;-40
2022/12/08 01:43:20;;;;;;;;;;;3.10;99.90;;;;;;5115185;28;19912;-39
2022/12/08 01:45:46;;;;;;;;;;;3.10;99.90;;;;;;5112385;28;19918;-41
2022/12/08 01:48:17;;;;;;;;;;;3.00;99.90;;;;;;5102947;28;19955;-39
2022/12/08 01:50:44;;;;;;;;;;;3.00;99.90;;;;;;5094596;28;19908;-39
2022/12/08 01:53:11;;;;;;;;;;;3.00;99.90;;;;;;5095684;28;19908;-40
2022/12/08 01:55:45;;;;;;;;;;;3.00;99.90;;;;;;5100571;28;19919;-41
2022/12/08 01:58:14;;;;;;;;;;;3.00;99.90;;;;;;5094260;28;19908;-40
2022/12/08 02:00:39;;;;;;;;;;;3.00;99.90;;;;;;5095327;28;20325;-39
2022/12/08 02:03:10;;;;;;;;;;;2.90;99.90;;;;;;5095310;28;19912;-40
2022/12/08 02:05:37;;;;;;;;;;;2.90;99.90;;;;;;5106073;28;19912;-39
2022/12/08 02:08:05;;;;;;;;;;;2.90;99.90;;;;;;5113784;28;20011;-39
2022/12/08 02:10:33;;;;;;;;;;;2.90;99.90;;;;;;5115240;28;19927;-39
2022/12/08 02:12:59;;;;;;;;;;;2.90;99.90;;;;;;5109835;28;19916;-39
2022/12/08 02:15:33;;;;;;;;;;;2.90;99.90;;;;;;5095797;28;19927;-39
2022/12/08 02:18:21;;;;;;;;;;;2.90;99.90;;;;;;5095125;28;19908;-39
2022/12/08 02:20:59;;;;;;;;;;;2.90;99.90;;;;;;5094971;28;19953;-42
2022/12/08 02:23:24;;;;;;;;;;;2.90;99.90;;;;;;5094706;28;19908;-40
2022/12/08 02:26:02;;;;;;;;;;;2.90;99.90;;;;;;5107019;28;19968;-40
2022/12/08 02:28:27;;;;;;;;;;;2.90;99.90;;;;;;5115329;28;19977;-38
2022/12/08 02:31:13;;;;;;;;;;;2.90;99.90;;;;;;5115072;28;20390;-38
2022/12/08 02:34:01;;;;;;;;;;;2.90;99.90;;;;;;5071181;28;19946;-39
2022/12/08 02:36:46;;;;;;;;;;;2.80;99.90;;;;;;5086538;28;20287;-40
2022/12/08 02:39:31;;;;;;;;;;;2.80;99.90;;;;;;5093945;28;19914;-45
2022/12/08 02:42:01;;;;;;;;;;;2.70;99.90;;;;;;5094200;28;20414;-38
2022/12/08 02:44:28;;;;;;;;;;;2.70;99.90;;;;;;5094525;28;20003;-39
2022/12/08 02:47:14;;;;;;;;;;;2.70;99.90;;;;;;5113234;28;20378;-39
2022/12/08 02:49:39;;;;;;;;;;;2.70;99.90;;;;;;5115065;28;20330;-43
2022/12/08 02:52:11;;;;;;;;;;;2.80;99.90;;;;;;5114898;28;19922;-38
2022/12/08 02:54:38;;;;;;;;;;;2.70;99.90;;;;;;5113602;28;20010;-39
2022/12/08 02:57:03;;;;;;;;;;;2.70;99.90;;;;;;5114337;28;20398;-38
2022/12/08 02:59:29;;;;;;;;;;;2.70;99.90;;;;;;5114430;28;19916;-39
2022/12/08 03:02:00;;;;;;;;;;;2.70;99.90;;;;;;5113840;28;20460;-40
2022/12/08 03:04:35;;;;;;;;;;;2.70;99.90;;;;;;5114608;28;19939;-39
2022/12/08 03:07:03;;;;;;;;;;;2.70;99.90;;;;;;5095830;28;20011;-38
2022/12/08 03:09:35;;;;;;;;;;;2.70;99.90;;;;;;5113523;28;19912;-40
2022/12/08 03:12:05;;;;;;;;;;;2.80;99.90;;;;;;5114232;28;19999;-38
2022/12/08 03:14:30;;;;;;;;;;;2.80;99.90;;;;;;5113712;28;19916;-39
2022/12/08 03:16:57;;;;;;;;;;;2.80;99.90;;;;;;5096957;28;19912;-39
2022/12/08 03:19:41;;;;;;;;;;;2.80;99.90;;;;;;5093695;28;19951;-42
2022/12/08 03:22:07;;;;;;;;;;;2.90;99.90;;;;;;5093024;28;19908;-39
2022/12/08 03:24:35;;;;;;;;;;;2.90;99.90;;;;;;5093935;28;20303;-39
2022/12/08 03:27:02;;;;;;;;;;;2.90;99.90;;;;;;5111158;28;19924;-41
2022/12/08 03:29:28;;;;;;;;;;;2.90;99.90;;;;;;5113173;28;19968;-39
2022/12/08 03:31:56;;;;;;;;;;;3.00;99.90;;;;;;5113892;28;20350;-39
2022/12/08 03:34:23;;;;;;;;;;;3.00;99.90;;;;;;5110640;28;19916;-38
2022/12/08 03:36:48;;;;;;;;;;;3.00;99.90;;;;;;5107506;28;19912;-39
2022/12/08 03:39:14;;;;;;;;;;;3.00;99.90;;;;;;5113915;28;20264;-39
2022/12/08 03:41:39;;;;;;;;;;;3.00;99.90;;;;;;5113830;28;19908;-40
2022/12/08 03:44:04;;;;;;;;;;;3.00;99.90;;;;;;5096284;28;19912;-39
2022/12/08 03:46:30;;;;;;;;;;;3.00;99.90;;;;;;5105635;28;19978;-39
2022/12/08 03:48:55;;;;;;;;;;;3.00;99.90;;;;;;5113674;28;20357;-38
2022/12/08 03:51:21;;;;;;;;;;;3.00;99.90;;;;;;5112567;28;19965;-39
2022/12/08 03:53:47;;;;;;;;;;;3.10;99.90;;;;;;5113206;28;19998;-40
2022/12/08 03:56:14;;;;;;;;;;;3.10;99.90;;;;;;5112860;28;20380;-39
2022/12/08 03:58:40;;;;;;;;;;;3.10;99.90;;;;;;5112815;28;19947;-39
2022/12/08 04:01:05;;;;;;;;;;;3.10;99.90;;;;;;5102208;28;19962;-40
2022/12/08 04:03:31;;;;;;;;;;;3.10;99.90;;;;;;5092906;28;19915;-38
2022/12/08 04:05:56;;;;;;;;;;;3.00;99.90;;;;;;5099742;28;19915;-40
2022/12/08 04:08:22;;;;;;;;;;;3.00;99.90;;;;;;5113430;28;19916;-38
2022/12/08 04:10:47;;;;;;;;;;;3.00;99.90;;;;;;5112342;28;19967;-40
2022/12/08 04:13:13;;;;;;;;;;;3.00;99.90;;;;;;5095033;28;19908;-39
2022/12/08 04:15:38;;;;;;;;;;;2.90;99.90;;;;;;5111354;28;19995;-38
2022/12/08 04:18:04;;;;;;;;;;;2.90;99.90;;;;;;5112503;28;19915;-39
2022/12/08 04:20:29;;;;;;;;;;;2.90;99.90;;;;;;5106592;28;20041;-39
2022/12/08 04:22:54;;;;;;;;;;;2.90;99.90;;;;;;5092908;28;19912;-39
2022/12/08 04:25:20;;;;;;;;;;;2.90;99.90;;;;;;5093177;28;19912;-40
2022/12/08 04:27:45;;;;;;;;;;;2.90;99.90;;;;;;5112587;28;19927;-39
2022/12/08 04:30:11;;;;;;;;;;;2.80;99.90;;;;;;5112946;28;19912;-39
2022/12/08 04:32:36;;;;;;;;;;;2.80;99.90;;;;;;5112290;28;19953;-40
2022/12/08 04:35:02;;;;;;;;;;;2.90;99.90;;;;;;5113067;28;19911;-39
2022/12/08 04:37:27;;;;;;;;;;;2.80;99.90;;;;;;5093583;28;19935;-40
2022/12/08 04:39:53;;;;;;;;;;;2.80;99.90;;;;;;5091650;28;19947;-40
2022/12/08 04:42:18;;;;;;;;;;;2.80;99.90;;;;;;5092706;28;19916;-39
2022/12/08 04:44:44;;;;;;;;;;;2.80;99.90;;;;;;5092543;28;20003;-39
2022/12/08 04:47:09;;;;;;;;;;;2.80;99.90;;;;;;5106779;28;19919;-40
2022/12/08 04:49:35;;;;;;;;;;;2.80;99.90;;;;;;5112829;28;19986;-39
2022/12/08 04:52:00;;;;;;;;;;;2.80;99.90;;;;;;5113006;28;20434;-39
2022/12/08 04:54:27;;;;;;;;;;;2.80;99.90;;;;;;5111989;28;19915;-38
2022/12/08 04:56:52;;;;;;;;;;;2.80;99.90;;;;;;5100199;28;19916;-38
2022/12/08 04:59:17;;;;;;;;;;;2.80;99.90;;;;;;5096531;28;20033;-43
2022/12/08 05:01:43;;;;;;;;;;;2.80;99.90;;;;;;5095632;28;19909;-39
2022/12/08 05:04:09;;;;;;;;;;;2.80;99.90;;;;;;5096326;28;20279;-40
2022/12/08 05:06:34;;;;;;;;;;;2.80;99.90;;;;;;5104459;28;20011;-41
2022/12/08 05:08:59;;;;;;;;;;;2.80;99.90;;;;;;5116075;28;19908;-39
2022/12/08 05:11:25;;;;;;;;;;;2.80;99.90;;;;;;5116501;28;19970;-39
2022/12/08 05:13:50;;;;;;;;;;;2.90;99.90;;;;;;5116482;28;19919;-38
2022/12/08 05:16:16;;;;;;;;;;;2.90;99.90;;;;;;5110475;28;19919;-40
2022/12/08 05:18:42;;;;;;;;;;;2.90;99.90;;;;;;5096078;28;19908;-43
2022/12/08 05:21:07;;;;;;;;;;;2.90;99.90;;;;;;5095527;28;19908;-40
2022/12/08 05:23:33;;;;;;;;;;;3.00;99.90;;;;;;5096183;28;19931;-39
2022/12/08 05:25:59;;;;;;;;;;;3.00;99.90;;;;;;5111754;28;20285;-40
2022/12/08 05:28:24;;;;;;;;;;;3.00;99.90;;;;;;5115126;28;20378;-41
2022/12/08 05:30:50;;;;;;;;;;;3.00;99.90;;;;;;5116214;28;19931;-41
2022/12/08 05:33:16;;;;;;;;;;;3.00;99.90;;;;;;5116103;28;19912;-39
2022/12/08 05:35:41;;;;;;;;;;;3.00;99.90;;;;;;5102502;28;20359;-39
2022/12/08 05:38:07;;;;;;;;;;;2.90;99.90;;;;;;5095794;28;20385;-39
2022/12/08 05:40:32;;;;;;;;;;;2.90;99.90;;;;;;5095643;28;19916;-39
2022/12/08 05:42:58;;;;;;;;;;;2.90;99.90;;;;;;5094694;28;19908;-40
2022/12/08 05:45:23;;;;;;;;;;;2.90;99.90;;;;;;5105411;28;19998;-39
2022/12/08 05:47:49;;;;;;;;;;;2.90;99.90;;;;;;5115878;28;19920;-40
2022/12/08 05:50:14;;;;;;;;;;;2.90;99.90;;;;;;5115028;28;19912;-39
2022/12/08 05:52:40;;;;;;;;;;;3.00;99.90;;;;;;5115937;28;19961;-38
2022/12/08 05:55:05;;;;;;;;;;;2.90;99.90;;;;;;5108472;28;20294;-38
2022/12/08 05:57:31;;;;;;;;;;;2.90;99.90;;;;;;5094621;28;19912;-41
2022/12/08 05:59:58;;;;;;;;;;;2.90;99.90;;;;;;5095134;28;19908;-39
2022/12/08 06:02:24;;;;;;;;;;;2.90;99.90;;;;;;5095527;28;19908;-39
2022/12/08 06:04:49;;;;;;;;;;;2.90;99.90;;;;;;5101595;28;20011;-38
2022/12/08 06:07:15;;;;;;;;;;;2.90;99.90;;;;;;5115637;28;19923;-40
2022/12/08 06:09:40;;;;;;;;;;;2.90;99.90;;;;;;5114215;28;20316;-39
2022/12/08 06:12:06;;;;;;;;;;;2.90;99.90;;;;;;5114405;28;19919;-41
2022/12/08 06:14:31;;;;;;;;;;;2.90;99.90;;;;;;5113854;28;19918;-39
2022/12/08 06:16:57;;;;;;;;;;;3.00;99.90;;;;;;5115245;28;20275;-40
2022/12/08 06:19:22;;;;;;;;;;;3.00;99.90;;;;;;5114741;28;19916;-39
2022/12/08 06:21:48;;;;;;;;;;;3.00;99.90;;;;;;5115355;28;20354;-39
2022/12/08 06:24:13;;;;;;;;;;;3.00;99.90;;;;;;5112762;28;19914;-40
2022/12/08 06:26:40;;;;;;;;;;;3.00;99.90;;;;;;5094508;28;19919;-39
2022/12/08 06:29:06;;;;;;;;;;;3.00;99.90;;;;;;5094893;28;19912;-39
2022/12/08 06:31:31;;;;;;;;;;;3.00;99.90;;;;;;5093856;28;19919;-40
2022/12/08 06:33:56;;;;;;;;;;;3.00;99.90;;;;;;5094695;28;20007;-40
2022/12/08 06:36:25;;;;;;;;;;;3.00;99.90;;;;;;5095664;28;20362;-40
2022/12/08 06:38:50;;;;;;;;;;;3.00;99.90;;;;;;5093491;28;20398;-40
2022/12/08 06:41:16;;;;;;;;;;;3.00;99.90;;;;;;5094550;28;19908;-38
2022/12/08 06:43:42;;;;;;;;;;;3.00;99.90;;;;;;5094312;28;19924;-40
2022/12/08 06:46:08;;;;;;;;;;;3.00;99.90;;;;;;5109880;28;20370;-39
2022/12/08 06:48:34;;;;;;;;;;;3.00;99.90;;;;;;5114838;28;19922;-39
2022/12/08 06:51:26;;;;;;;;;;;3.00;99.90;;;;;;5114810;28;19908;-42
2022/12/08 06:53:51;;;;;;;;;;;3.00;99.90;;;;;;5109368;28;19995;-39
2022/12/08 06:56:18;;;;;;;;;;;2.90;99.90;;;;;;5096925;28;19951;-39
2022/12/08 06:58:44;;;;;;;;;;;2.90;99.90;;;;;;5105000;28;20011;-41
2022/12/08 07:01:10;;;;;;;;;;;2.90;99.90;;;;;;5110384;28;20442;-40
2022/12/08 07:03:36;;;;;;;;;;;2.90;99.90;;;;;;5102658;28;19911;-43
2022/12/08 07:06:02;;;;;;;;;;;2.90;99.90;;;;;;5101084;28;20011;-37
2022/12/08 07:08:28;;;;;;;;;;;2.90;99.90;;;;;;5093071;28;20018;-39
2022/12/08 07:10:53;;;;;;;;;;;2.90;99.90;;;;;;5093787;28;19951;-39
2022/12/08 07:13:18;;;;;;;;;;;2.90;99.90;;;;;;5097455;28;19919;-41
2022/12/08 07:15:44;;;;;;;;;;;2.90;99.90;;;;;;5108949;28;20252;-39
2022/12/08 07:18:09;;;;;;;;;;;2.90;99.90;;;;;;5114204;28;19908;-40
2022/12/08 07:20:35;;;;;;;;;;;2.90;99.90;;;;;;5112067;28;20378;-39
2022/12/08 07:23:00;;;;;;;;;;;2.90;99.90;;;;;;5109170;28;19912;-41
2022/12/08 07:25:26;;;;;;;;;;;2.90;99.90;;;;;;5111832;28;19912;-41
2022/12/08 07:27:52;;;;;;;;;;;2.90;99.90;;;;;;5112565;27;20030;-40
2022/12/08 07:30:17;;;;;;;;;;;2.90;99.90;;;;;;5108875;28;20365;-40
2022/12/08 07:32:43;;;;;;;;;;;2.90;99.90;;;;;;5109930;28;20003;-39
2022/12/08 07:35:08;;;;;;;;;;;2.90;99.90;;;;;;5110203;28;20277;-39
2022/12/08 07:37:35;;;;;;;;;;;2.90;99.90;;;;;;5112550;28;19907;-42
2022/12/08 07:40:00;;;;;;;;;;;2.90;99.90;;;;;;5113353;28;19908;-40
2022/12/08 07:42:26;;;;;;;;;;;2.90;99.90;;;;;;5112368;28;19908;-40
2022/12/08 07:44:51;;;;;;;;;;;2.90;99.90;;;;;;5113106;28;19957;-39
2022/12/08 07:47:17;;;;;;;;;;;3.00;99.90;;;;;;5111793;28;20282;-40
2022/12/08 07:49:42;;;;;;;;;;;2.90;99.90;;;;;;5112320;28;19907;-41
2022/12/08 07:52:07;;;;;;;;;;;2.90;99.90;;;;;;5111162;28;19912;-42
2022/12/08 07:54:33;;;;;;;;;;;2.90;99.90;;;;;;5113156;28;19908;-40
2022/12/08 07:56:59;;;;;;;;;;;2.80;99.90;;;;;;5112728;28;19914;-40
2022/12/08 07:59:24;;;;;;;;;;;2.80;99.90;;;;;;5111535;28;19912;-41
2022/12/08 08:01:50;;;;;;;;;;;2.80;99.90;;;;;;5106411;28;20267;-40
2022/12/08 08:04:16;;;;;;;;;;;2.70;99.90;;;;;;5112839;28;19911;-40
2022/12/08 08:06:41;;;;;;;;;;;2.70;99.90;;;;;;5112619;28;20286;-39
2022/12/08 08:09:07;;;;;;;;;;;2.70;99.90;;;;;;5113467;28;20376;-41
2022/12/08 08:11:33;;;;;;;;;;;2.70;99.90;;;;;;5108609;28;19920;-39
2022/12/08 08:13:58;;;;;;;;;;;2.70;99.90;;;;;;5101849;28;19916;-39
2022/12/08 08:16:24;;;;;;;;;;;2.60;99.90;;;;;;5100473;28;19917;-44
2022/12/08 08:18:49;;;;;;;;;;;2.60;99.90;;;;;;5092019;28;19951;-40
2022/12/08 08:21:16;;;;;;;;;;;2.60;99.90;;;;;;5092669;28;20347;-39
2022/12/08 08:23:41;;;;;;;;;;;2.60;99.90;;;;;;5113311;27;19908;-40
2022/12/08 08:26:07;;;;;;;;;;;2.60;99.90;;;;;;5132865;27;19922;-39
2022/12/08 08:28:32;;;;;;;;;;;2.60;99.90;;;;;;5122399;27;20006;-38
2022/12/08 08:30:58;;;;;;;;;;;2.50;99.90;;;;;;5112164;28;19962;-43
2022/12/08 08:33:24;;;;;;;;;;;2.60;99.90;;;;;;5112312;28;19914;-40
2022/12/08 08:35:50;;;;;;;;;;;2.50;99.90;;;;;;5112774;28;20362;-41
2022/12/08 08:38:16;;;;;;;;;;;2.50;99.90;;;;;;5112344;28;19916;-39
2022/12/08 08:40:41;;;;;;;;;;;2.50;99.90;;;;;;5123445;28;19911;-39
2022/12/08 08:43:07;;;;;;;;;;;2.50;99.90;;;;;;5133567;28;19908;-39
2022/12/08 08:45:33;;;;;;;;;;;2.50;99.90;;;;;;5132778;28;20278;-39
2022/12/08 08:47:59;;;;;;;;;;;2.50;99.90;;;;;;5133307;28;20362;-39
2022/12/08 08:50:24;;;;;;;;;;;2.50;99.90;;;;;;5133386;28;20326;-39
2022/12/08 08:52:50;;;;;;;;;;;2.50;99.90;;;;;;5132630;28;19908;-41
2022/12/08 08:55:16;;;;;;;;;;;2.50;99.90;;;;;;5133469;28;19912;-39
2022/12/08 08:57:41;;;;;;;;;;;2.50;99.90;;;;;;5131351;28;19912;-39
2022/12/08 09:00:08;;;;;;;;;;;2.50;99.90;;;;;;5106187;28;19912;-40
2022/12/08 09:02:35;;;;;;;;;;;2.40;99.90;;;;;;5133467;28;19907;-38
2022/12/08 09:05:00;;;;;;;;;;;2.40;99.90;;;;;;5125026;28;20416;-39
2022/12/08 09:07:26;;;;;;;;;;;2.40;99.90;;;;;;5111944;28;20010;-43
2022/12/08 09:09:51;;;;;;;;;;;2.40;99.90;;;;;;5112717;28;19990;-39
2022/12/08 09:12:17;;;;;;;;;;;2.40;99.90;;;;;;5112491;28;20298;-41
2022/12/08 09:14:42;;;;;;;;;;;2.40;99.90;;;;;;5107031;28;20057;-40
2022/12/08 09:17:08;;;;;;;;;;;2.40;99.90;;;;;;5100038;28;19916;-39
2022/12/08 09:19:33;;;;;;;;;;;2.40;99.90;;;;;;5133136;28;19993;-41
2022/12/08 09:21:59;;;;;;;;;;;2.40;99.90;;;;;;5124688;28;20265;-39
2022/12/08 09:24:24;;;;;;;;;;;2.40;99.90;;;;;;5112730;28;20425;-41
2022/12/08 09:26:50;;;;;;;;;;;2.40;99.90;;;;;;5112512;28;19919;-44
2022/12/08 09:29:16;;;;;;;;;;;2.40;99.90;;;;;;5111815;28;19912;-39
2022/12/08 09:31:42;;;;;;;;;;;2.40;99.90;;;;;;5112534;28;19963;-39
2022/12/08 09:34:07;;;;;;;;;;;2.40;99.90;;;;;;5119245;28;20037;-41
2022/12/08 09:36:32;;;;;;;;;;;2.40;99.90;;;;;;5132957;28;19907;-39
2022/12/08 09:38:58;;;;;;;;;;;2.40;99.90;;;;;;5132983;28;20012;-41
2022/12/08 09:41:53;;;;;;;;;;;2.40;99.90;;;;;;5132275;28;19911;-40
2022/12/08 09:44:28;;;;;;;;;;;2.40;99.90;;;;;;5113435;27;20255;-42
2022/12/08 09:46:54;;;;;;;;;;;2.40;99.90;;;;;;5136585;27;19927;-40
2022/12/08 09:49:22;;;;;;;;;;;2.40;99.90;;;;;;5135739;27;19945;-39
2022/12/08 09:51:47;;;;;;;;;;;2.40;99.90;;;;;;5136234;27;19991;-39
2022/12/08 09:54:12;;;;;;;;;;;2.40;99.90;;;;;;5136539;27;20001;-41
2022/12/08 09:56:38;;;;;;;;;;;2.40;99.90;;;;;;5135540;27;19907;-42
2022/12/08 09:59:23;;;;;;;;;;;2.40;99.90;;;;;;5136261;27;19914;-40
2022/12/08 10:01:49;;;;;;;;;;;2.40;99.90;;;;;;5110167;27;19912;-40
2022/12/08 10:04:35;;;;;;;;;;;2.30;99.90;;;;;;5112881;27;19919;-40
2022/12/08 10:07:19;;;;;;;;;;;2.30;99.90;;;;;;5114871;28;19916;-41
2022/12/08 10:09:51;;;;;;;;;;;2.30;99.90;;;;;;5109314;27;19920;-40
2022/12/08 10:12:39;;;;;;;;;;;2.30;99.90;;;;;;5092738;28;19951;-41
2022/12/08 10:15:17;;;;;;;;;;;2.30;99.90;;;;;;5081578;28;19916;-39
2022/12/08 10:17:47;;;;;;;;;;;2.30;99.90;;;;;;5093092;28;20386;-38
2022/12/08 10:20:18;;;;;;;;;;;2.40;99.90;;;;;;5098324;28;19916;-40
2022/12/08 10:22:44;;;;;;;;;;;2.40;99.90;;;;;;5099308;27;19919;-40
2022/12/08 10:25:10;;;;;;;;;;;2.40;99.90;;;;;;5099942;27;20347;-38
2022/12/08 10:27:36;;;;;;;;;;;2.40;99.90;;;;;;5114918;28;19969;-39
2022/12/08 10:30:02;;;;;;;;;;;2.40;99.90;;;;;;5104582;28;19912;-39
2022/12/08 10:32:32;;;;;;;;;;;2.50;99.90;;;;;;5094009;28;19954;-39
2022/12/08 10:34:59;;;;;;;;;;;2.50;99.90;;;;;;5094442;28;20274;-39
2022/12/08 10:37:25;;;;;;;;;;;2.50;99.90;;;;;;5105172;27;19930;-45
2022/12/08 10:39:57;;;;;;;;;;;2.50;99.90;;;;;;5099860;28;20446;-41
2022/12/08 10:42:23;;;;;;;;;;;2.60;99.90;;;;;;5102028;28;19912;-40
2022/12/08 10:45:21;;;;;;;;;;;2.80;99.90;;;;;;5118391;27;20389;-40
2022/12/08 10:47:54;;;;;;;;;;;2.90;99.90;;;;;;5104987;27;19923;-40
2022/12/08 10:50:21;;;;;;;;;;;3.10;99.90;;;;;;5108397;28;19920;-43
2022/12/08 10:52:53;;;;;;;;;;;3.20;99.90;;;;;;5105214;28;20326;-40
2022/12/08 10:55:19;;;;;;;;;;;3.40;99.90;;;;;;5111261;28;19987;-39
2022/12/08 10:57:44;;;;;;;;;;;3.50;99.90;;;;;;5112150;27;19919;-41
2022/12/08 11:00:20;;;;;;;;;;;3.60;99.90;;;;;;5101955;28;19912;-42
2022/12/08 11:02:59;;;;;;;;;;;3.70;99.90;;;;;;5109913;27;19911;-39
2022/12/08 11:05:30;;;;;;;;;;;3.80;99.90;;;;;;5109869;28;19908;-39
2022/12/08 11:07:56;;;;;;;;;;;3.80;99.90;;;;;;5109060;27;20512;-39
2022/12/08 11:10:29;;;;;;;;;;;3.80;99.90;;;;;;5134358;27;19978;-42
2022/12/08 11:12:57;;;;;;;;;;;3.80;99.90;;;;;;5117067;27;19916;-40
2022/12/08 11:15:32;;;;;;;;;;;3.70;99.90;;;;;;5100979;28;19954;-40
2022/12/08 11:18:06;;;;;;;;;;;3.70;99.90;;;;;;5100742;28;19919;-39
2022/12/08 11:20:39;;;;;;;;;;;3.70;99.90;;;;;;5102799;28;19999;-40
2022/12/08 11:23:17;;;;;;;;;;;3.80;99.90;;;;;;5101399;28;20401;-41
2022/12/08 11:25:43;;;;;;;;;;;4.00;99.90;;;;;;5122833;27;19912;-38
2022/12/08 11:28:09;;;;;;;;;;;4.10;99.90;;;;;;5130439;27;19916;-40
2022/12/08 11:30:37;;;;;;;;;;;4.00;99.90;;;;;;5133052;27;19908;-41
2022/12/08 11:33:11;;;;;;;;;;;4.00;99.90;;;;;;5135106;27;19907;-39
2022/12/08 11:35:39;;;;;;;;;;;3.90;99.90;;;;;;5134413;27;19954;-42
2022/12/08 11:38:15;;;;;;;;;;;3.80;99.90;;;;;;5122053;27;19947;-39
2022/12/08 11:40:44;;;;;;;;;;;3.80;99.90;;;;;;5080738;27;19928;-39
2022/12/08 11:43:15;;;;;;;;;;;3.80;99.90;;;;;;5132682;27;20378;-40
2022/12/08 11:45:41;;;;;;;;;;;3.90;99.90;;;;;;5119583;27;19962;-43
2022/12/08 11:48:12;;;;;;;;;;;4.00;99.90;;;;;;5113739;28;19924;-39
2022/12/08 11:50:44;;;;;;;;;;;4.00;99.90;;;;;;5109287;28;19915;-39
2022/12/08 11:53:15;;;;;;;;;;;4.10;99.90;;;;;;5094036;28;19947;-40
2022/12/08 11:55:44;;;;;;;;;;;4.10;99.90;;;;;;5105868;28;19912;-38
2022/12/08 11:58:36;;;;;;;;;;;4.10;99.90;;;;;;5134748;27;20353;-39
2022/12/08 12:01:01;;;;;;;;;;;4.10;99.90;;;;;;5118057;27;19916;-40
2022/12/08 12:03:28;;;;;;;;;;;4.20;99.90;;;;;;5113648;28;19919;-41
2022/12/08 12:05:59;;;;;;;;;;;4.30;99.90;;;;;;5110175;28;19907;-39
2022/12/08 12:08:27;;;;;;;;;;;4.30;99.90;;;;;;5096753;28;20006;-40
2022/12/08 12:11:01;;;;;;;;;;;4.40;99.90;;;;;;5101992;27;20293;-41
2022/12/08 12:13:46;;;;;;;;;;;4.50;99.90;;;;;;5113363;28;20367;-41
2022/12/08 12:16:14;;;;;;;;;;;4.60;99.90;;;;;;5115442;28;19951;-39
2022/12/08 12:18:45;;;;;;;;;;;4.70;99.90;;;;;;5109196;28;19912;-41
2022/12/08 12:21:25;;;;;;;;;;;4.60;99.90;;;;;;5106283;28;19938;-40
2022/12/08 12:23:53;;;;;;;;;;;4.70;99.90;;;;;;5114689;27;19995;-39
2022/12/08 12:26:23;;;;;;;;;;;4.80;99.90;;;;;;5133743;27;20362;-39
2022/12/08 12:28:58;;;;;;;;;;;5.00;99.90;;;;;;5112629;28;19920;-39
2022/12/08 12:31:28;;;;;;;;;;;5.10;99.90;;;;;;5107075;28;19957;-39
2022/12/08 12:34:03;;;;;;;;;;;5.30;99.90;;;;;;5108695;28;19920;-39
2022/12/08 12:36:31;;;;;;;;;;;5.30;99.90;;;;;;5111918;28;19908;-41
2022/12/08 12:39:00;;;;;;;;;;;5.30;99.90;;;;;;5110599;28;19954;-39
2022/12/08 12:41:46;;;;;;;;;;;5.30;99.90;;;;;;5108734;28;19916;-41
2022/12/08 12:44:11;;;;;;;;;;;5.40;99.90;;;;;;5109889;28;20015;-41
2022/12/08 12:46:40;;;;;;;;;;;5.50;99.90;;;;;;5108546;28;20002;-44
2022/12/08 12:49:23;;;;;;;;;;;5.70;99.90;;;;;;5096764;28;19916;-40
2022/12/08 12:51:53;;;;;;;;;;;5.70;99.90;;;;;;5092129;28;19908;-39
2022/12/08 12:54:28;;;;;;;;;;;5.90;99.90;;;;;;5093312;28;20050;-41
2022/12/08 12:57:15;;;;;;;;;;;5.80;99.90;;;;;;5099668;28;19916;-39
2022/12/08 13:00:05;;;;;;;;;;;5.80;99.90;;;;;;5106768;28;19912;-39
2022/12/08 13:02:44;;;;;;;;;;;5.80;99.90;;;;;;5112151;28;19915;-40
2022/12/08 13:05:14;;;;;;;;;;;5.80;99.90;;;;;;5112112;28;20353;-41
2022/12/08 13:07:42;;;;;;;;;;;5.80;99.90;;;;;;5112782;28;19915;-40
2022/12/08 13:10:19;;;;;;;;;;;5.80;99.90;;;;;;5112866;28;19908;-39
2022/12/08 13:12:59;;;;;;;;;;;5.80;99.90;;;;;;5112058;28;20014;-39
2022/12/08 13:15:32;;;;;;;;;;;5.80;99.90;;;;;;5093205;28;19916;-39
2022/12/08 13:17:57;;;;;;;;;;;5.70;99.90;;;;;;5092938;28;19912;-40
2022/12/08 13:20:24;;;;;;;;;;;5.70;99.90;;;;;;5095636;28;20322;-39
2022/12/08 13:22:49;;;;;;;;;;;5.80;99.90;;;;;;5096097;28;19908;-40
2022/12/08 13:25:33;;;;;;;;;;;5.90;99.90;;;;;;5096175;28;19908;-42
2022/12/08 13:28:07;;;;;;;;;;;6.00;99.90;;;;;;5095131;28;19916;-42
2022/12/08 13:30:40;;;;;;;;;;;6.10;99.90;;;;;;5106121;28;19912;-39
2022/12/08 13:33:11;;;;;;;;;;;6.20;99.90;;;;;;5116413;28;20251;-39
2022/12/08 13:35:39;;;;;;;;;;;6.30;99.90;;;;;;5115588;28;20421;-39
2022/12/08 13:38:05;;;;;;;;;;;6.30;99.90;;;;;;5116063;28;19908;-41
2022/12/08 13:40:33;;;;;;;;;;;6.20;99.90;;;;;;5115580;28;19941;-42
2022/12/08 13:43:05;;;;;;;;;;;6.00;99.90;;;;;;5115969;28;20317;-41
2022/12/08 13:45:31;;;;;;;;;;;5.70;99.90;;;;;;5114457;28;20355;-41
2022/12/08 13:48:15;;;;;;;;;;;5.40;99.90;;;;;;5114772;28;19919;-41
2022/12/08 13:50:43;;;;;;;;;;;5.10;99.90;;;;;;5115991;28;19990;-42
2022/12/08 13:53:14;;;;;;;;;;;4.90;99.90;;;;;;5115965;28;19908;-43
2022/12/08 13:55:42;;;;;;;;;;;4.80;99.90;;;;;;5115214;28;19931;-39
2022/12/08 13:58:15;;;;;;;;;;;4.90;99.90;;;;;;5115880;28;20255;-40
2022/12/08 14:00:40;;;;;;;;;;;4.90;99.90;;;;;;5114295;28;19999;-40
2022/12/08 14:03:09;;;;;;;;;;;5.00;99.90;;;;;;5099347;28;20012;-39
2022/12/08 14:05:40;;;;;;;;;;;5.40;99.90;;;;;;5102755;28;20338;-40
2022/12/08 14:08:19;;;;;;;;;;;5.80;99.90;;;;;;5095851;28;19955;-40
2022/12/08 14:10:46;;;;;;;;;;;6.00;99.90;;;;;;5097415;28;19920;-41
2022/12/08 14:13:12;;;;;;;;;;;6.20;99.90;;;;;;5109281;28;20409;-42
2022/12/08 14:15:38;;;;;;;;;;;6.40;99.90;;;;;;5096289;28;19915;-40
2022/12/08 14:18:03;;;;;;;;;;;6.60;99.90;;;;;;5095255;28;19995;-40
2022/12/08 14:20:30;;;;;;;;;;;6.70;99.90;;;;;;5109717;28;19965;-40
2022/12/08 14:22:56;;;;;;;;;;;6.80;99.90;;;;;;5115618;28;19951;-40
2022/12/08 14:25:22;;;;;;;;;;;6.80;99.90;;;;;;5116036;28;19908;-42
2022/12/08 14:27:48;;;;;;;;;;;6.60;99.90;;;;;;5115697;28;19961;-41
2022/12/08 14:30:13;;;;;;;;;;;6.30;99.90;;;;;;5114353;28;19911;-42
2022/12/08 14:32:43;;;;;;;;;;;6.00;99.90;;;;;;5115872;28;19908;-41
2022/12/08 14:35:09;;;;;;;;;;;5.70;99.90;;;;;;5115857;28;19994;-40
2022/12/08 14:37:40;;;;;;;;;;;5.50;99.90;;;;;;5115309;28;20327;-40
2022/12/08 14:40:12;;;;;;;;;;;5.30;99.90;;;;;;5105303;28;20130;-40
2022/12/08 14:42:42;;;;;;;;;;;5.20;99.90;;;;;;5094888;28;19909;-40